createdAt,value
2023-10-19T00:00:01.567Z,9.60
2023-10-19T00:02:28.193Z,9.60
2023-10-19T00:04:54.944Z,9.40
2023-10-19T00:07:21.624Z,9.30
2023-10-19T00:09:48.281Z,8.90
2023-10-19T00:12:14.972Z,8.90
2023-10-19T00:14:41.591Z,9.20
2023-10-19T00:17:08.243Z,9.40
2023-10-19T00:19:34.959Z,9.20
2023-10-19T00:22:01.596Z,9.30
2023-10-19T00:24:28.215Z,9.40
2023-10-19T00:26:54.888Z,9.40
2023-10-19T00:29:21.534Z,9.30
2023-10-19T00:31:48.214Z,9.40
2023-10-19T00:34:14.970Z,9.40
2023-10-19T00:36:41.592Z,9.30
2023-10-19T00:39:08.211Z,9.40
2023-10-19T00:41:34.868Z,9.20
2023-10-19T00:44:01.489Z,9.20
2023-10-19T00:46:28.174Z,9.40
2023-10-19T00:48:54.886Z,9.60
2023-10-19T00:51:21.501Z,9.50
2023-10-19T00:53:48.112Z,9.60
2023-10-19T00:56:14.784Z,9.50
2023-10-19T00:58:41.422Z,9.60
2023-10-19T01:01:08.131Z,9.60
2023-10-19T01:03:34.891Z,9.50
2023-10-19T01:06:01.615Z,9.40
2023-10-19T01:08:28.231Z,9.50
2023-10-19T01:10:54.911Z,9.50
2023-10-19T01:13:21.600Z,9.50
2023-10-19T01:15:48.262Z,9.50
2023-10-19T01:18:14.949Z,9.50
2023-10-19T01:20:41.595Z,9.10
2023-10-19T01:23:08.188Z,9.20
2023-10-19T01:25:34.895Z,9.20
2023-10-19T01:28:01.526Z,9.40
2023-10-19T01:30:28.163Z,9.30
2023-10-19T01:32:54.901Z,9.00
2023-10-19T01:35:21.506Z,9.20
2023-10-19T01:37:48.171Z,9.00
2023-10-19T01:40:14.937Z,8.80
2023-10-19T01:42:41.589Z,9.00
2023-10-19T01:45:08.176Z,9.20
2023-10-19T01:47:34.988Z,9.30
2023-10-19T01:50:01.649Z,9.20
2023-10-19T01:52:28.293Z,8.80
2023-10-19T01:54:54.977Z,8.90
2023-10-19T01:57:21.622Z,9.00
2023-10-19T01:59:48.310Z,8.90
2023-10-19T02:02:15.060Z,8.80
2023-10-19T02:04:41.802Z,8.90
2023-10-19T02:07:08.430Z,9.00
2023-10-19T02:09:35.081Z,8.80
2023-10-19T02:12:01.685Z,8.70
2023-10-19T02:14:28.300Z,8.30
2023-10-19T02:16:55.084Z,8.60
2023-10-19T02:19:21.856Z,8.70
2023-10-19T02:21:48.495Z,8.80
2023-10-19T02:24:15.176Z,9.00
2023-10-19T02:26:41.789Z,8.90
2023-10-19T02:29:08.413Z,9.00
2023-10-19T02:31:35.155Z,9.00
2023-10-19T02:34:01.778Z,8.60
2023-10-19T02:36:28.394Z,8.70
2023-10-19T02:38:55.078Z,8.70
2023-10-19T02:41:21.693Z,8.70
2023-10-19T02:43:48.331Z,8.60
2023-10-19T02:46:15.128Z,8.40
2023-10-19T02:48:41.844Z,8.50
2023-10-19T02:51:08.472Z,8.60
2023-10-19T02:53:35.141Z,8.40
2023-10-19T02:56:01.744Z,8.60
2023-10-19T02:58:28.401Z,8.60
2023-10-19T03:00:55.139Z,8.10
2023-10-19T03:03:21.933Z,8.00
2023-10-19T03:05:48.827Z,8.30
2023-10-19T03:08:15.566Z,8.40
2023-10-19T03:10:42.374Z,8.30
2023-10-19T03:13:09.005Z,8.50
2023-10-19T03:15:35.711Z,8.60
2023-10-19T03:18:02.330Z,8.60
2023-10-19T03:20:28.995Z,8.60
2023-10-19T03:22:55.695Z,8.50
2023-10-19T03:25:22.406Z,8.40
2023-10-19T03:27:49.061Z,8.30
2023-10-19T03:30:15.764Z,8.30
2023-10-19T03:32:42.440Z,8.30
2023-10-19T03:35:09.127Z,8.30
2023-10-19T03:37:35.859Z,8.30
2023-10-19T03:40:02.524Z,8.40
2023-10-19T03:42:29.304Z,8.50
2023-10-19T03:44:56.014Z,8.50
2023-10-19T03:47:22.704Z,8.50
2023-10-19T03:49:49.457Z,8.40
2023-10-19T03:52:16.187Z,8.40
2023-10-19T03:54:42.851Z,8.20
2023-10-19T03:57:09.510Z,8.20
2023-10-19T03:59:36.260Z,8.30
2023-10-19T04:02:02.944Z,8.40
2023-10-19T04:04:29.734Z,8.30
2023-10-19T04:06:57.258Z,8.30
2023-10-19T04:09:23.921Z,8.30
2023-10-19T04:11:50.567Z,8.10
2023-10-19T04:14:17.290Z,8.20
2023-10-19T04:16:44.050Z,8.30
2023-10-19T04:19:10.706Z,8.30
2023-10-19T04:21:37.457Z,8.30
2023-10-19T04:24:04.116Z,8.40
2023-10-19T04:26:30.716Z,8.30
2023-10-19T04:28:57.441Z,8.30
2023-10-19T04:31:24.084Z,8.30
2023-10-19T04:33:50.704Z,8.40
2023-10-19T04:36:17.412Z,8.40
2023-10-19T04:38:44.059Z,8.30
2023-10-19T04:41:10.858Z,8.40
2023-10-19T04:43:37.656Z,8.30
2023-10-19T04:46:04.371Z,8.30
2023-10-19T04:48:31.023Z,8.00
2023-10-19T04:50:57.686Z,8.10
2023-10-19T04:53:24.342Z,8.20
2023-10-19T04:55:53.208Z,8.10
2023-10-19T04:58:19.980Z,8.10
2023-10-19T05:00:46.653Z,8.10
2023-10-19T05:03:13.304Z,7.80
2023-10-19T05:05:40.058Z,7.80
2023-10-19T05:08:06.684Z,7.60
2023-10-19T05:10:33.349Z,7.70
2023-10-19T05:13:00.008Z,7.90
2023-10-19T05:15:26.667Z,7.60
2023-10-19T05:17:53.296Z,7.70
2023-10-19T05:20:19.959Z,7.90
2023-10-19T05:22:46.616Z,8.10
2023-10-19T05:25:13.245Z,7.80
2023-10-19T05:27:39.959Z,7.90
2023-10-19T05:30:06.566Z,7.80
2023-10-19T05:32:33.303Z,7.90
2023-10-19T05:35:01.289Z,7.90
2023-10-19T05:37:28.175Z,7.90
2023-10-19T05:39:54.787Z,7.90
2023-10-19T05:42:21.489Z,8.00
2023-10-19T05:44:48.129Z,8.20
2023-10-19T05:47:14.807Z,8.30
2023-10-19T05:49:41.551Z,8.40
2023-10-19T05:52:08.209Z,8.20
2023-10-19T05:54:34.823Z,8.20
2023-10-19T05:57:01.519Z,8.20
2023-10-19T05:59:28.193Z,8.20
2023-10-19T06:01:54.930Z,8.30
2023-10-19T06:04:22.028Z,8.30
2023-10-19T06:06:48.844Z,8.30
2023-10-19T06:09:15.452Z,8.00
2023-10-19T06:11:42.126Z,8.10
2023-10-19T06:14:08.734Z,8.20
2023-10-19T06:16:35.533Z,8.10
2023-10-19T06:19:02.499Z,8.20
2023-10-19T06:21:29.268Z,8.50
2023-10-19T06:23:55.931Z,8.70
2023-10-19T06:26:22.631Z,9.00
2023-10-19T06:28:49.259Z,9.00
2023-10-19T06:31:15.870Z,8.70
2023-10-19T06:33:42.879Z,9.00
2023-10-19T06:36:09.642Z,9.30
2023-10-19T06:38:36.270Z,9.30
2023-10-19T06:41:02.974Z,9.50
2023-10-19T06:43:31.831Z,9.50
2023-10-19T06:46:00.308Z,9.50
2023-10-19T06:48:27.002Z,9.50
2023-10-19T06:50:53.592Z,9.60
2023-10-19T06:53:20.228Z,9.90
2023-10-19T06:55:46.979Z,10.10
2023-10-19T06:58:13.710Z,10.20
2023-10-19T07:00:40.400Z,10.50
2023-10-19T07:03:07.092Z,10.40
2023-10-19T07:05:33.737Z,10.50
2023-10-19T07:08:00.352Z,10.70
2023-10-19T07:10:27.055Z,10.90
2023-10-19T07:12:53.703Z,10.90
2023-10-19T07:15:20.381Z,11.00
2023-10-19T07:17:47.069Z,11.20
2023-10-19T07:20:13.743Z,11.30
2023-10-19T07:22:40.388Z,11.40
2023-10-19T07:25:07.098Z,11.30
2023-10-19T07:27:38.245Z,11.50
2023-10-19T07:30:05.396Z,11.60
2023-10-19T07:32:32.247Z,11.30
2023-10-19T07:34:58.980Z,11.40
2023-10-19T07:37:25.797Z,11.50
2023-10-19T07:39:52.481Z,11.50
2023-10-19T07:42:19.120Z,11.30
2023-10-19T07:44:45.749Z,11.50
2023-10-19T07:47:12.414Z,11.70
2023-10-19T07:49:39.117Z,11.90
2023-10-19T07:52:05.747Z,12.30
2023-10-19T07:54:32.653Z,12.50
2023-10-19T07:56:59.462Z,12.30
2023-10-19T07:59:26.074Z,12.80
2023-10-19T08:01:52.884Z,13.10
2023-10-19T08:04:19.583Z,13.40
2023-10-19T08:06:46.234Z,13.60
2023-10-19T08:09:12.923Z,13.70
2023-10-19T08:11:39.534Z,13.80
2023-10-19T08:14:06.212Z,14.00
2023-10-19T08:16:32.943Z,14.20
2023-10-19T08:18:59.587Z,14.10
2023-10-19T08:21:26.212Z,14.30
2023-10-19T08:23:52.919Z,14.00
2023-10-19T08:26:19.577Z,14.00
2023-10-19T08:28:46.283Z,14.40
2023-10-19T08:31:12.996Z,14.50
2023-10-19T08:33:39.656Z,14.90
2023-10-19T08:36:06.350Z,14.90
2023-10-19T08:38:33.085Z,14.80
2023-10-19T08:40:59.765Z,14.90
2023-10-19T08:43:26.448Z,15.10
2023-10-19T08:45:53.148Z,15.10
2023-10-19T08:48:19.807Z,15.20
2023-10-19T08:50:46.427Z,15.30
2023-10-19T08:53:13.163Z,15.30
2023-10-19T08:55:48.438Z,15.20
2023-10-19T08:58:17.003Z,15.30
2023-10-19T09:00:44.492Z,15.40
2023-10-19T09:03:12.866Z,15.20
2023-10-19T09:05:39.622Z,15.30
2023-10-19T09:08:06.348Z,15.40
2023-10-19T09:10:33.073Z,15.50
2023-10-19T09:12:59.844Z,15.90
2023-10-19T09:15:26.471Z,15.90
2023-10-19T09:17:53.182Z,15.80
2023-10-19T09:20:19.879Z,15.40
2023-10-19T09:22:46.510Z,15.30
2023-10-19T09:25:13.119Z,15.50
2023-10-19T09:27:39.785Z,15.80
2023-10-19T09:30:06.428Z,15.90
2023-10-19T09:32:33.078Z,16.10
2023-10-19T09:34:59.784Z,16.40
2023-10-19T09:37:26.406Z,16.70
2023-10-19T09:39:53.009Z,16.60
2023-10-19T09:42:19.685Z,16.90
2023-10-19T09:44:46.288Z,17.10
2023-10-19T09:47:12.993Z,17.30
2023-10-19T09:49:39.788Z,17.30
2023-10-19T09:52:10.047Z,17.40
2023-10-19T09:54:36.991Z,17.30
2023-10-19T09:57:03.674Z,17.10
2023-10-19T09:59:30.294Z,16.70
2023-10-19T10:01:56.988Z,17.00
2023-10-19T10:04:23.816Z,16.80
2023-10-19T10:06:50.454Z,17.10
2023-10-19T10:09:17.065Z,17.50
2023-10-19T10:11:43.774Z,17.60
2023-10-19T10:14:10.482Z,17.50
2023-10-19T10:16:37.318Z,17.80
2023-10-19T10:19:04.082Z,17.60
2023-10-19T10:21:30.696Z,17.90
2023-10-19T10:23:57.325Z,17.80
2023-10-19T10:26:24.006Z,17.80
2023-10-19T10:28:53.435Z,18.10
2023-10-19T10:31:21.342Z,18.30
2023-10-19T10:33:48.041Z,18.60
2023-10-19T10:36:14.666Z,18.70
2023-10-19T10:38:41.288Z,18.70
2023-10-19T10:41:08.024Z,18.90
2023-10-19T10:43:34.729Z,18.70
2023-10-19T10:46:01.413Z,18.80
2023-10-19T10:48:28.138Z,18.70
2023-10-19T10:50:55.790Z,18.80
2023-10-19T10:53:23.622Z,19.10
2023-10-19T10:55:50.347Z,19.30
2023-10-19T10:58:17.046Z,19.30
2023-10-19T11:00:43.709Z,19.20
2023-10-19T11:03:10.413Z,19.30
2023-10-19T11:05:37.095Z,19.50
2023-10-19T11:08:03.886Z,19.20
2023-10-19T11:10:30.767Z,19.20
2023-10-19T11:12:57.453Z,18.50
2023-10-19T11:15:24.065Z,18.50
2023-10-19T11:17:50.736Z,18.70
2023-10-19T11:20:17.372Z,18.80
2023-10-19T11:22:44.053Z,19.00
2023-10-19T11:25:10.720Z,19.40
2023-10-19T11:27:37.357Z,19.60
2023-10-19T11:30:03.974Z,19.10
2023-10-19T11:32:30.670Z,19.20
2023-10-19T11:34:57.314Z,19.50
2023-10-19T11:37:23.983Z,19.80
2023-10-19T11:39:50.648Z,19.70
2023-10-19T11:42:17.258Z,19.60
2023-10-19T11:44:43.912Z,19.60
2023-10-19T11:47:10.712Z,19.80
2023-10-19T11:49:37.464Z,20.10
2023-10-19T11:52:04.087Z,20.00
2023-10-19T11:54:31.017Z,20.60
2023-10-19T11:56:57.750Z,20.50
2023-10-19T11:59:24.470Z,20.60
2023-10-19T12:01:51.364Z,20.60
2023-10-19T12:04:18.132Z,20.70
2023-10-19T12:06:44.759Z,21.00
2023-10-19T12:09:11.472Z,20.80
2023-10-19T12:11:38.078Z,20.60
2023-10-19T12:14:04.717Z,20.60
2023-10-19T12:16:31.470Z,20.60
2023-10-19T12:18:58.110Z,20.70
2023-10-19T12:21:24.750Z,20.50
2023-10-19T12:23:51.436Z,20.40
2023-10-19T12:26:18.066Z,20.20
2023-10-19T12:28:46.984Z,20.20
2023-10-19T12:31:14.413Z,20.30
2023-10-19T12:33:41.089Z,19.70
2023-10-19T12:36:07.769Z,19.50
2023-10-19T12:38:34.485Z,19.60
2023-10-19T12:41:01.135Z,19.50
2023-10-19T12:43:27.818Z,19.40
2023-10-19T12:45:54.538Z,19.70
2023-10-19T12:48:21.238Z,19.20
2023-10-19T12:50:47.838Z,19.30
2023-10-19T12:53:14.541Z,19.60
2023-10-19T12:55:41.180Z,19.10
2023-10-19T12:58:07.825Z,19.40
2023-10-19T13:00:34.489Z,20.10
2023-10-19T13:03:01.334Z,20.60
2023-10-19T13:05:28.072Z,20.90
2023-10-19T13:07:54.768Z,21.30
2023-10-19T13:10:21.387Z,21.00
2023-10-19T13:12:47.997Z,21.10
2023-10-19T13:15:14.690Z,21.00
2023-10-19T13:17:41.606Z,20.90
2023-10-19T13:20:08.348Z,20.60
2023-10-19T13:22:35.162Z,20.60
2023-10-19T13:25:01.835Z,20.80
2023-10-19T13:27:28.440Z,21.00
2023-10-19T13:29:55.117Z,20.80
2023-10-19T13:32:21.868Z,20.70
2023-10-19T13:34:48.569Z,20.80
2023-10-19T13:37:15.243Z,21.00
2023-10-19T13:39:41.915Z,21.20
2023-10-19T13:42:08.545Z,21.30
2023-10-19T13:44:35.252Z,21.20
2023-10-19T13:47:01.911Z,21.20
2023-10-19T13:49:29.438Z,21.20
2023-10-19T13:51:56.931Z,21.20
2023-10-19T13:54:23.555Z,20.80
2023-10-19T13:56:50.210Z,21.00
2023-10-19T13:59:16.942Z,21.10
2023-10-19T14:01:43.681Z,21.20
2023-10-19T14:04:10.499Z,21.30
2023-10-19T14:06:37.241Z,21.20
2023-10-19T14:09:03.850Z,21.10
2023-10-19T14:11:30.483Z,21.00
2023-10-19T14:13:57.214Z,21.10
2023-10-19T14:16:23.864Z,21.10
2023-10-19T14:18:50.500Z,21.00
2023-10-19T14:21:17.169Z,20.90
2023-10-19T14:23:43.894Z,20.30
2023-10-19T14:26:10.671Z,20.20
2023-10-19T14:28:37.541Z,20.50
2023-10-19T14:31:04.221Z,20.30
2023-10-19T14:33:30.874Z,20.30
2023-10-19T14:35:57.585Z,20.50
2023-10-19T14:38:24.195Z,20.30
2023-10-19T14:40:52.397Z,19.60
2023-10-19T14:43:19.113Z,19.90
2023-10-19T14:45:45.735Z,20.20
2023-10-19T14:48:12.482Z,20.20
2023-10-19T14:50:39.230Z,20.60
2023-10-19T14:53:05.997Z,20.80
2023-10-19T14:55:32.715Z,21.00
2023-10-19T14:57:59.360Z,20.90
2023-10-19T15:00:25.973Z,20.50
2023-10-19T15:02:52.638Z,20.60
2023-10-19T15:05:19.437Z,20.50
2023-10-19T15:07:46.186Z,20.10
2023-10-19T15:10:12.962Z,20.00
2023-10-19T15:12:39.632Z,20.30
2023-10-19T15:15:06.244Z,19.90
2023-10-19T15:17:32.922Z,19.70
2023-10-19T15:19:59.694Z,20.00
2023-10-19T15:22:26.349Z,20.00
2023-10-19T15:24:52.993Z,19.60
2023-10-19T15:27:19.691Z,19.20
2023-10-19T15:29:46.307Z,19.30
2023-10-19T15:32:12.948Z,19.50
2023-10-19T15:34:39.684Z,19.70
2023-10-19T15:37:06.339Z,19.60
2023-10-19T15:39:32.960Z,19.50
2023-10-19T15:41:59.636Z,19.60
2023-10-19T15:44:26.254Z,19.60
2023-10-19T15:46:52.884Z,19.70
2023-10-19T15:49:19.560Z,19.60
2023-10-19T15:51:46.170Z,19.50
2023-10-19T15:54:12.805Z,19.00
2023-10-19T15:56:39.501Z,18.90
2023-10-19T15:59:06.169Z,19.00
2023-10-19T16:01:32.881Z,18.70
2023-10-19T16:03:59.681Z,18.80
2023-10-19T16:06:26.445Z,18.90
2023-10-19T16:08:53.081Z,18.60
2023-10-19T16:11:19.783Z,18.50
2023-10-19T16:13:46.498Z,18.60
2023-10-19T16:16:13.173Z,18.70
2023-10-19T16:18:39.848Z,18.30
2023-10-19T16:21:06.452Z,18.00
2023-10-19T16:23:33.058Z,18.10
2023-10-19T16:26:02.833Z,18.00
2023-10-19T16:28:30.898Z,18.00
2023-10-19T16:30:57.571Z,17.80
2023-10-19T16:33:24.281Z,17.80
2023-10-19T16:35:50.930Z,18.10
2023-10-19T16:38:17.572Z,17.70
2023-10-19T16:40:44.363Z,17.10
2023-10-19T16:43:10.974Z,17.20
2023-10-19T16:45:37.673Z,17.30
2023-10-19T16:48:04.412Z,17.30
2023-10-19T16:50:31.064Z,17.70
2023-10-19T16:52:57.720Z,17.80
2023-10-19T16:55:24.396Z,17.90
2023-10-19T16:57:51.018Z,18.00
2023-10-19T17:00:17.674Z,17.90
2023-10-19T17:02:44.530Z,17.60
2023-10-19T17:05:11.324Z,17.70
2023-10-19T17:07:37.955Z,17.80
2023-10-19T17:10:04.618Z,17.70
2023-10-19T17:12:31.225Z,17.70
2023-10-19T17:14:57.840Z,17.70
2023-10-19T17:17:24.566Z,17.70
2023-10-19T17:19:51.351Z,17.80
2023-10-19T17:22:18.040Z,17.80
2023-10-19T17:24:44.723Z,17.60
2023-10-19T17:27:11.360Z,17.20
2023-10-19T17:29:37.960Z,17.50
2023-10-19T17:32:04.704Z,17.60
2023-10-19T17:34:31.505Z,17.50
2023-10-19T17:36:58.235Z,17.50
2023-10-19T17:39:24.932Z,17.40
2023-10-19T17:41:51.548Z,17.70
2023-10-19T17:44:18.259Z,17.70
2023-10-19T17:46:45.136Z,17.70
2023-10-19T17:49:11.841Z,17.70
2023-10-19T17:51:38.523Z,17.10
2023-10-19T17:54:05.216Z,17.40
2023-10-19T17:56:31.873Z,17.50
2023-10-19T17:58:59.218Z,17.50
2023-10-19T18:01:26.149Z,17.30
2023-10-19T18:03:52.980Z,17.20
2023-10-19T18:06:19.662Z,17.00
2023-10-19T18:08:46.372Z,17.20
2023-10-19T18:11:13.169Z,17.40
2023-10-19T18:13:40.030Z,17.50
2023-10-19T18:16:06.810Z,17.50
2023-10-19T18:18:33.492Z,17.50
2023-10-19T18:21:00.125Z,17.40
2023-10-19T18:23:26.855Z,17.40
2023-10-19T18:25:53.566Z,17.40
2023-10-19T18:28:20.230Z,17.20
2023-10-19T18:30:46.903Z,17.50
2023-10-19T18:33:13.615Z,17.10
2023-10-19T18:35:40.356Z,17.20
2023-10-19T18:38:07.274Z,17.40
2023-10-19T18:40:35.261Z,17.40
2023-10-19T18:43:01.956Z,17.40
2023-10-19T18:45:28.676Z,17.30
2023-10-19T18:47:55.388Z,17.20
2023-10-19T18:50:33.549Z,16.50
2023-10-19T18:53:01.653Z,16.40
2023-10-19T18:55:28.273Z,16.70
2023-10-19T18:57:54.912Z,16.70
2023-10-19T19:00:23.722Z,16.70
2023-10-19T19:02:50.362Z,16.80
2023-10-19T19:05:17.071Z,16.70
2023-10-19T19:07:43.765Z,16.90
2023-10-19T19:10:10.397Z,17.00
2023-10-19T19:12:37.044Z,16.90
2023-10-19T19:15:03.728Z,17.00
2023-10-19T19:17:30.410Z,16.70
2023-10-19T19:19:57.131Z,16.70
2023-10-19T19:22:23.822Z,16.80
2023-10-19T19:24:50.439Z,16.80
2023-10-19T19:27:17.059Z,16.80
2023-10-19T19:29:43.727Z,16.60
2023-10-19T19:32:10.432Z,16.60
2023-10-19T19:34:37.120Z,16.50
2023-10-19T19:37:03.786Z,16.50
2023-10-19T19:39:30.456Z,16.50
2023-10-19T19:41:57.169Z,16.40
2023-10-19T19:44:23.951Z,16.50
2023-10-19T19:46:50.727Z,16.50
2023-10-19T19:49:17.383Z,16.20
2023-10-19T19:51:44.066Z,15.70
2023-10-19T19:54:10.697Z,15.70
2023-10-19T19:56:37.317Z,16.00
2023-10-19T19:59:04.019Z,15.70
2023-10-19T20:01:30.667Z,16.00
2023-10-19T20:03:57.385Z,16.20
2023-10-19T20:06:24.114Z,15.90
2023-10-19T20:08:50.725Z,15.60
2023-10-19T20:11:17.382Z,15.70
2023-10-19T20:13:44.074Z,15.80
2023-10-19T20:16:10.724Z,15.70
2023-10-19T20:18:37.431Z,15.80
2023-10-19T20:21:04.138Z,15.70
2023-10-19T20:23:30.784Z,15.60
2023-10-19T20:25:57.431Z,15.70
2023-10-19T20:28:24.109Z,15.10
2023-10-19T20:30:50.722Z,15.20
2023-10-19T20:33:17.379Z,15.40
2023-10-19T20:35:44.070Z,15.50
2023-10-19T20:38:10.743Z,15.50
2023-10-19T20:40:38.412Z,15.70
2023-10-19T20:43:05.138Z,15.80
2023-10-19T20:45:31.755Z,15.90
2023-10-19T20:47:58.432Z,15.80
2023-10-19T20:50:25.310Z,15.50
2023-10-19T20:52:51.978Z,15.50
2023-10-19T20:55:18.605Z,15.70
2023-10-19T20:57:45.285Z,15.70
2023-10-19T21:00:11.921Z,15.60
2023-10-19T21:02:38.592Z,15.40
2023-10-19T21:05:05.377Z,15.10
2023-10-19T21:07:32.029Z,15.20
2023-10-19T21:09:58.637Z,15.30
2023-10-19T21:12:25.304Z,15.10
2023-10-19T21:14:51.945Z,15.30
2023-10-19T21:17:18.631Z,15.30
2023-10-19T21:19:45.351Z,15.50
2023-10-19T21:22:11.958Z,15.60
2023-10-19T21:24:38.559Z,15.30
2023-10-19T21:27:05.248Z,15.50
2023-10-19T21:29:32.012Z,15.40
2023-10-19T21:31:58.773Z,15.40
2023-10-19T21:34:25.547Z,15.30
2023-10-19T21:36:52.145Z,15.40
2023-10-19T21:39:18.768Z,15.50
2023-10-19T21:41:45.437Z,15.40
2023-10-19T21:44:12.098Z,15.50
2023-10-19T21:46:38.761Z,15.30
2023-10-19T21:49:05.437Z,15.60
2023-10-19T21:51:32.043Z,15.80
2023-10-19T21:53:58.641Z,16.00
2023-10-19T21:56:25.382Z,16.00
2023-10-19T21:58:52.066Z,16.20
2023-10-19T22:01:18.680Z,15.80
